Terminal Aerodrome Forecast
Issued by NWS

Home | Current Version | Previous Version | Text Only | Print | Product List | Glossary On
Versions: 1 2 3 4 5 6 7 8 9 10 11 12 13 14 15 16 17 18 19 20 21
000
FTUS41 KBGM 051122
TAFELM
TAF
KELM 051122Z 0512/0612 VRB03KT 5SM BR OVC008
      TEMPO 0512/0514 P6SM NSW SCT008 BKN015
     FM051400 31005KT P6SM FEW050 BKN250
     FM060000 VRB03KT P6SM SCT100 BKN250
      TEMPO 0607/0611 2SM BR SCT002 BKN250=

USA.gov is the U.S. government's official web portal to all federal, state and local government web resources and services.